Terminal Aerodrome Forecast
Issued by NWS

Home | Current Version | Previous Version | Text Only | Print | Product List | Glossary On
Versions: 1 2 3 4 5 6 7 8 9 10 11 12 13 14
545
FTUS43 KLSX 182151 AAA
TAFSUS
TAF AMD
KSUS 182151Z 1822/1918 31020G34KT P6SM BKN018
     FM190000 31017G23KT P6SM SCT120
     FM190300 31012KT P6SM SCT100
     FM190900 31009KT P6SM SKC=

USA.gov is the U.S. government's official web portal to all federal, state and local government web resources and services.